Malvern, United Kingdom
Current Conditions -  °F | °C
As of 3:58 AM on Sunday 23 Nov 2014 (Local Time) from EGVA Reporting Station
Light Rain Light Rain  
Wind Chill: 46°   Ceiling: 4100
Heat Index: 49°   Visibility: 6mi
Dew Point: 48°   Wind: 6mph
Humidity: 99%   Direction: 350°N
Pressure: 29.99"   Gusts: NA
Location:  52.05°N, 2.32°W
Report Text: EGVA 230358Z AUTO 35005KT 9999 -RA BKN041 OVC055 09/09 A2999 RMK AO2 RAE0322B0349DZB0259E0303B0322E0329 SLP160 P0000 T00920091 $
Loading
Personal Weather Stations






























Interactive Weather Map New forecast layout! Learn more

10-Day Weather Forecast

Advertisements
Track Severe Weather on mobile